Time;durP1;ratioP1;P1;durP2;ratioP2;P2;SDS_P1;SDS_P2;PMS_P1;PMS_P2;Temp;Humidity;BMP_temperature;BMP_pressure;BME280_temperature;BME280_humidity;BME280_pressure;Samples;Min_cycle;Max_cycle;Signal;HPM_P1;HPM_P2
2021/10/26 00:00:36;;;;;;;40.60;28.33;;;;;;;11.87;82.24;100499.03;5080482;28;20491;-80
2021/10/26 00:03:03;;;;;;;42.83;29.00;;;;;;;11.92;81.72;100500.47;5071460;28;20481;-80
2021/10/26 00:05:31;;;;;;;40.17;29.33;;;;;;;11.94;81.80;100501.16;5070943;28;20514;-80
2021/10/26 00:07:57;;;;;;;42.63;28.77;;;;;;;11.93;82.29;100504.84;5077736;28;20480;-80
2021/10/26 00:10:24;;;;;;;43.97;30.00;;;;;;;11.91;82.28;100494.28;5065714;28;20498;-79
2021/10/26 00:12:51;;;;;;;44.10;31.17;;;;;;;11.94;81.75;100491.28;5075844;28;20559;-80
2021/10/26 00:15:17;;;;;;;44.67;29.23;;;;;;;11.85;82.31;100502.84;5085648;28;20460;-80
2021/10/26 00:17:44;;;;;;;40.27;30.60;;;;;;;12.06;81.69;100494.66;5073776;28;20504;-79
2021/10/26 00:20:11;;;;;;;44.13;30.53;;;;;;;11.90;82.21;100489.84;5083998;28;20516;-80
2021/10/26 00:22:39;;;;;;;46.63;32.33;;;;;;;12.13;81.57;100492.25;5067100;28;21026;-79
2021/10/26 00:25:06;;;;;;;47.93;31.00;;;;;;;11.73;82.40;100487.91;5065201;28;20459;-80
2021/10/26 00:27:33;;;;;;;43.20;31.50;;;;;;;11.73;82.52;100493.25;5065768;28;20469;-80
2021/10/26 00:29:59;;;;;;;52.60;31.23;;;;;;;11.72;82.63;100494.22;5076826;28;20977;-80
2021/10/26 00:32:26;;;;;;;43.33;31.40;;;;;;;11.84;82.50;100490.44;5072669;28;20496;-80
2021/10/26 00:34:53;;;;;;;46.63;31.67;;;;;;;11.94;81.82;100491.28;5077573;28;20980;-80
2021/10/26 00:37:19;;;;;;;54.17;32.80;;;;;;;11.97;82.07;100490.16;5065905;28;20515;-80
2021/10/26 00:39:49;;;;;;;42.77;30.67;;;;;;;11.86;81.75;100489.31;5065399;28;20504;-80
2021/10/26 00:42:16;;;;;;;44.00;29.90;;;;;;;11.99;81.62;100494.38;5075605;28;20483;-80
2021/10/26 00:44:43;;;;;;;43.90;29.57;;;;;;;11.92;81.81;100492.44;5075113;28;20502;-80
2021/10/26 00:47:09;;;;;;;42.73;30.40;;;;;;;11.93;81.15;100486.94;5084942;28;20495;-80
2021/10/26 00:49:36;;;;;;;39.10;26.07;;;;;;;11.90;81.37;100489.03;5084952;28;20492;-80
2021/10/26 00:52:04;;;;;;;34.57;26.93;;;;;;;11.89;80.81;100482.81;5075918;28;20518;-80
2021/10/26 00:54:32;;;;;;;38.80;26.97;;;;;;;12.13;79.87;100489.56;5065306;28;20435;-79
2021/10/26 00:57:00;;;;;;;34.23;24.00;;;;;;;11.86;80.78;100496.50;5073317;28;20464;-80
2021/10/26 00:59:27;;;;;;;37.77;26.43;;;;;;;12.04;80.36;100497.47;5081152;28;20932;-80
2021/10/26 01:01:54;;;;;;;40.27;24.83;;;;;;;12.11;79.82;100491.53;5074895;28;20475;-80
2021/10/26 01:04:20;;;;;;;32.60;23.60;;;;;;;12.10;80.12;100497.88;5074596;28;20483;-80
2021/10/26 01:06:47;;;;;;;43.43;26.23;;;;;;;12.02;79.96;100496.78;5082699;28;20464;-80
2021/10/26 01:09:15;;;;;;;37.57;27.03;;;;;;;12.15;80.00;100496.47;5083172;28;20519;-80
2021/10/26 01:11:43;;;;;;;38.37;26.70;;;;;;;11.96;80.66;100497.38;5063571;28;20508;-80
2021/10/26 01:14:11;;;;;;;33.70;24.70;;;;;;;12.18;79.79;100498.00;5085318;28;20503;-80
2021/10/26 01:16:37;;;;;;;39.30;25.37;;;;;;;12.00;80.32;100503.28;5083787;28;20566;-80
2021/10/26 01:19:04;;;;;;;37.20;25.87;;;;;;;12.10;80.23;100513.97;5084501;28;20547;-79
2021/10/26 01:21:32;;;;;;;34.80;24.83;;;;;;;12.00;80.62;100508.66;5083318;28;20543;-80
2021/10/26 01:23:59;;;;;;;35.60;24.40;;;;;;;12.04;80.63;100513.56;5082682;28;20495;-80
2021/10/26 01:26:25;;;;;;;36.63;25.67;;;;;;;12.13;80.18;100508.31;5073464;28;20510;-80
2021/10/26 01:28:52;;;;;;;33.87;25.40;;;;;;;12.13;80.20;100511.00;5079156;28;20499;-80
2021/10/26 01:31:19;;;;;;;36.50;25.10;;;;;;;12.22;79.44;100504.75;5081263;28;20539;-80
2021/10/26 01:33:46;;;;;;;32.30;24.57;;;;;;;12.05;80.11;100504.53;5065145;28;20860;-80
2021/10/26 01:36:14;;;;;;;35.27;25.10;;;;;;;12.02;80.31;100498.63;5066620;28;20548;-80
2021/10/26 01:38:42;;;;;;;34.67;24.67;;;;;;;12.04;79.95;100500.16;5085079;28;20436;-79
2021/10/26 01:41:08;;;;;;;35.70;24.93;;;;;;;12.09;80.09;100502.41;5077135;28;21191;-79
2021/10/26 01:43:35;;;;;;;41.23;26.80;;;;;;;12.13;79.66;100508.31;5064524;28;21039;-80
2021/10/26 01:46:02;;;;;;;37.93;24.40;;;;;;;12.13;79.95;100513.69;5063853;28;20497;-79
2021/10/26 01:48:28;;;;;;;40.03;26.20;;;;;;;12.17;80.06;100515.94;5065166;28;20444;-80
2021/10/26 01:50:57;;;;;;;39.07;27.67;;;;;;;12.23;79.97;100511.81;5062896;28;20477;-80
2021/10/26 01:53:23;;;;;;;40.00;26.53;;;;;;;12.15;80.05;100517.06;5064028;28;20456;-80
2021/10/26 01:55:51;;;;;;;36.87;26.50;;;;;;;12.29;79.30;100516.63;5065987;28;20500;-80
2021/10/26 01:58:18;;;;;;;37.53;27.17;;;;;;;12.37;78.90;100514.03;5068950;28;20456;-80
2021/10/26 02:00:45;;;;;;;35.73;27.30;;;;;;;12.24;79.57;100521.56;5067447;28;20544;-80
2021/10/26 02:03:12;;;;;;;34.77;26.30;;;;;;;12.20;79.98;100514.78;5082028;28;20515;-80
2021/10/26 02:05:38;;;;;;;38.77;26.77;;;;;;;12.27;79.65;100515.06;5078266;28;20554;-80
2021/10/26 02:08:06;;;;;;;40.03;26.07;;;;;;;12.01;80.11;100510.31;5070231;28;20548;-80
2021/10/26 02:10:32;;;;;;;37.27;25.53;;;;;;;12.08;80.13;100503.38;5077722;28;20884;-80
2021/10/26 02:13:00;;;;;;;39.47;28.00;;;;;;;12.32;79.33;100510.94;5062847;28;20527;-80
2021/10/26 02:15:27;;;;;;;42.30;27.73;;;;;;;12.19;79.72;100510.44;5063706;28;20493;-80
2021/10/26 02:17:54;;;;;;;40.37;27.30;;;;;;;12.27;79.70;100507.03;5064852;28;20473;-80
2021/10/26 02:20:20;;;;;;;38.73;27.90;;;;;;;11.99;80.90;100504.25;5078490;28;20484;-80
2021/10/26 02:22:47;;;;;;;43.03;28.97;;;;;;;12.15;80.03;100512.56;5083272;28;20575;-80
2021/10/26 02:25:13;;;;;;;45.77;31.40;;;;;;;12.01;80.80;100515.69;5083662;28;20432;-81
2021/10/26 02:27:40;;;;;;;43.70;30.10;;;;;;;12.17;80.21;100515.06;5083849;28;20777;-80
2021/10/26 02:30:09;;;;;;;47.03;31.93;;;;;;;12.09;80.56;100521.16;5082931;28;20508;-80
2021/10/26 02:32:36;;;;;;;47.53;32.13;;;;;;;12.09;80.51;100515.81;5051263;28;20456;-80
2021/10/26 02:35:03;;;;;;;48.87;33.43;;;;;;;12.20;80.18;100521.03;5066091;28;20459;-80
2021/10/26 02:37:30;;;;;;;44.50;31.30;;;;;;;12.03;80.60;100516.38;5080872;28;20491;-80
2021/10/26 02:39:57;;;;;;;47.00;33.37;;;;;;;12.07;80.68;100509.75;5083065;28;20447;-80
2021/10/26 02:42:23;;;;;;;46.07;33.20;;;;;;;12.10;80.74;100516.66;5071906;28;20873;-80
2021/10/26 02:44:50;;;;;;;54.13;34.63;;;;;;;12.02;81.06;100518.22;5067839;28;20539;-80
2021/10/26 02:47:18;;;;;;;51.63;34.10;;;;;;;12.08;80.84;100511.44;5080330;28;20492;-80
2021/10/26 02:49:44;;;;;;;47.67;34.97;;;;;;;11.95;81.08;100509.06;5071350;28;21042;-80
2021/10/26 02:52:12;;;;;;;51.70;34.30;;;;;;;11.99;81.18;100523.84;5066498;28;21033;-80
2021/10/26 02:54:38;;;;;;;51.73;35.70;;;;;;;11.95;81.27;100524.31;5063439;28;20497;-80
2021/10/26 02:57:05;;;;;;;51.73;35.67;;;;;;;12.17;80.60;100523.13;5076950;28;21051;-80
2021/10/26 02:59:32;;;;;;;49.13;33.10;;;;;;;12.10;81.09;100513.97;5082368;28;20468;-80
2021/10/26 03:01:58;;;;;;;47.57;33.27;;;;;;;12.08;81.24;100511.44;5081447;28;20499;-80
2021/10/26 03:04:26;;;;;;;50.07;34.20;;;;;;;11.96;81.17;100521.47;5071172;28;20517;-80
2021/10/26 03:06:53;;;;;;;47.40;31.60;;;;;;;11.98;81.35;100515.97;5069328;28;20484;-80
2021/10/26 03:09:20;;;;;;;47.87;31.97;;;;;;;12.21;80.92;100513.81;5067431;28;20473;-80
2021/10/26 03:11:46;;;;;;;45.10;30.20;;;;;;;12.18;81.02;100512.25;5070883;28;20483;-80
2021/10/26 03:14:13;;;;;;;53.33;32.20;;;;;;;12.07;81.31;100519.63;5078359;28;20930;-81
2021/10/26 03:16:40;;;;;;;48.40;33.23;;;;;;;11.93;81.80;100512.88;5069439;28;20551;-80
2021/10/26 03:19:07;;;;;;;45.87;31.30;;;;;;;11.92;82.00;100519.22;5082502;28;20436;-80
2021/10/26 03:21:36;;;;;;;47.60;31.53;;;;;;;12.00;81.32;100511.31;5063670;28;20465;-80
2021/10/26 03:24:03;;;;;;;48.23;30.93;;;;;;;12.05;81.43;100504.53;5082283;28;20495;-80
2021/10/26 03:26:30;;;;;;;55.53;32.00;;;;;;;11.98;81.51;100516.81;5073245;28;20496;-81
2021/10/26 03:28:57;;;;;;;44.60;31.17;;;;;;;11.81;81.71;100514.84;5063898;28;20475;-81
2021/10/26 03:31:23;;;;;;;43.80;31.17;;;;;;;12.05;81.19;100509.91;5065127;28;20484;-80
2021/10/26 03:33:50;;;;;;;41.13;29.30;;;;;;;12.11;80.85;100503.09;5069212;28;20436;-80
2021/10/26 03:36:17;;;;;;;41.97;29.10;;;;;;;12.10;81.06;100500.56;5079765;28;20495;-80
2021/10/26 03:38:45;;;;;;;38.87;29.60;;;;;;;12.15;80.60;100509.03;5068797;28;20445;-80
2021/10/26 03:41:12;;;;;;;42.47;29.40;;;;;;;12.22;80.66;100502.09;5076133;28;20468;-80
2021/10/26 03:43:39;;;;;;;38.20;27.43;;;;;;;12.01;80.98;100495.09;5072046;28;21169;-80
2021/10/26 03:46:06;;;;;;;40.73;28.03;;;;;;;12.07;81.08;100501.72;5062124;28;20485;-80
2021/10/26 03:48:33;;;;;;;43.10;28.80;;;;;;;12.06;81.29;100502.69;5071551;28;20440;-80
2021/10/26 03:50:59;;;;;;;38.97;27.60;;;;;;;12.03;81.29;100502.97;5080792;28;20495;-80
2021/10/26 03:53:27;;;;;;;43.50;29.00;;;;;;;12.25;80.56;100517.88;5073449;28;20476;-80
2021/10/26 03:55:55;;;;;;;38.30;26.43;;;;;;;12.22;80.39;100508.31;5080709;28;20521;-80
2021/10/26 03:58:22;;;;;;;36.50;27.17;;;;;;;12.04;81.30;100508.19;5065774;28;20900;-80
2021/10/26 04:00:48;;;;;;;38.13;25.30;;;;;;;12.06;81.04;100510.72;5061393;28;20500;-80
2021/10/26 04:03:15;;;;;;;43.10;27.67;;;;;;;12.11;80.93;100513.81;5066716;28;20505;-81
2021/10/26 04:05:45;;;;;;;39.90;26.83;;;;;;;12.02;81.40;100517.38;5071209;28;20471;-80
2021/10/26 04:08:24;;;;;;;32.33;25.70;;;;;;;12.00;81.95;100514.84;5065992;28;20456;-80
2021/10/26 04:10:53;;;;;;;44.20;27.20;;;;;;;12.20;81.20;100514.78;5068165;28;20562;-80
2021/10/26 04:13:22;;;;;;;43.20;27.60;;;;;;;12.23;80.90;100511.81;5068692;28;20477;-80
2021/10/26 04:15:49;;;;;;;40.90;27.07;;;;;;;12.05;81.30;100507.22;5061850;28;20508;-80
2021/10/26 04:18:16;;;;;;;35.97;26.40;;;;;;;12.23;80.76;100515.34;5072403;28;20449;-80
2021/10/26 04:20:43;;;;;;;34.87;27.27;;;;;;;12.27;80.70;100512.38;5060256;28;20536;-80
2021/10/26 04:23:10;;;;;;;39.60;28.50;;;;;;;12.16;81.21;100524.97;5067878;28;20583;-81
2021/10/26 04:25:37;;;;;;;39.83;28.80;;;;;;;12.08;81.53;100521.31;5066118;28;20467;-78
2021/10/26 04:28:04;;;;;;;39.27;26.80;;;;;;;12.05;81.34;100520.63;5060784;28;20425;-79
2021/10/26 04:30:34;;;;;;;41.33;28.87;;;;;;;11.98;81.62;100534.75;5076037;28;20471;-79
2021/10/26 04:33:01;;;;;;;44.80;29.00;;;;;;;12.15;81.41;100528.66;5077782;28;20492;-78
2021/10/26 04:35:27;;;;;;;42.10;27.93;;;;;;;12.42;80.20;100538.59;5079766;28;20502;-78
2021/10/26 04:37:54;;;;;;;39.07;28.67;;;;;;;12.34;80.35;100535.81;5071575;28;20536;-79
2021/10/26 04:40:21;;;;;;;41.13;28.27;;;;;;;12.29;80.49;100542.56;5060249;28;20473;-78
2021/10/26 04:42:47;;;;;;;44.13;29.37;;;;;;;12.42;80.06;100540.44;5059988;28;20453;-79
2021/10/26 04:45:14;;;;;;;35.10;28.60;;;;;;;12.41;79.94;100544.09;5061569;28;20991;-79
2021/10/26 04:47:44;;;;;;;42.50;27.97;;;;;;;12.41;80.14;100538.72;5061576;28;20476;-79
2021/10/26 04:50:11;;;;;;;38.67;29.80;;;;;;;12.37;80.29;100540.84;5060623;28;20467;-79
2021/10/26 04:52:37;;;;;;;37.63;27.40;;;;;;;12.27;80.49;100540.03;5061133;28;20473;-79
2021/10/26 04:55:05;;;;;;;39.30;28.20;;;;;;;12.34;80.06;100532.25;5062422;28;20472;-79
2021/10/26 04:57:32;;;;;;;39.73;28.77;;;;;;;12.30;80.17;100547.78;5060731;28;20970;-78
2021/10/26 04:59:59;;;;;;;43.63;29.83;;;;;;;12.18;80.49;100544.41;5067512;28;20842;-78
2021/10/26 05:02:25;;;;;;;41.17;27.20;;;;;;;12.47;79.65;100542.69;5084011;28;20862;-79
2021/10/26 05:04:53;;;;;;;40.57;27.57;;;;;;;12.27;79.90;100552.59;5078269;28;20512;-79
2021/10/26 05:07:20;;;;;;;38.50;29.37;;;;;;;12.34;80.06;100548.34;5061335;28;20472;-79
2021/10/26 05:09:47;;;;;;;37.40;26.37;;;;;;;12.06;80.90;100542.88;5064737;28;20449;-79
2021/10/26 05:12:13;;;;;;;41.70;30.03;;;;;;;12.06;81.16;100545.56;5066663;28;20574;-77
2021/10/26 05:14:40;;;;;;;40.80;28.27;;;;;;;12.21;80.77;100554.84;5071785;28;20562;-79
2021/10/26 05:17:08;;;;;;;39.00;29.73;;;;;;;12.23;80.47;100547.50;5063380;28;20481;-78
2021/10/26 05:19:36;;;;;;;45.00;30.33;;;;;;;12.28;80.21;100546.25;5064891;28;20460;-79
2021/10/26 05:22:04;;;;;;;49.70;30.50;;;;;;;12.30;80.19;100546.94;5072616;28;20475;-80
2021/10/26 05:24:33;;;;;;;44.03;31.07;;;;;;;12.21;80.78;100537.94;5078222;28;20547;-79
2021/10/26 05:27:00;;;;;;;45.60;31.27;;;;;;;12.08;81.08;100526.66;5064931;28;20502;-79
2021/10/26 05:29:27;;;;;;;40.67;30.13;;;;;;;11.93;81.79;100529.81;5056704;28;20453;-72
2021/10/26 05:31:53;;;;;;;43.77;30.83;;;;;;;11.98;81.45;100546.28;5047394;28;20505;-79
2021/10/26 05:34:21;;;;;;;41.77;29.47;;;;;;;12.03;81.55;100552.06;5044251;28;20461;-84
2021/10/26 05:36:48;;;;;;;44.70;30.70;;;;;;;11.99;81.85;100549.81;5062620;28;20563;-85
2021/10/26 05:39:16;;;;;;;45.20;30.73;;;;;;;12.10;81.33;100548.81;5045251;28;20525;-84
2021/10/26 05:41:43;;;;;;;43.23;27.80;;;;;;;12.15;81.10;100566.16;5050362;28;20511;-84
2021/10/26 05:44:09;;;;;;;43.63;28.93;;;;;;;12.20;81.31;100565.72;5063873;28;20500;-84
2021/10/26 05:46:37;;;;;;;45.53;29.40;;;;;;;12.13;81.17;100561.94;5072648;28;20472;-84
2021/10/26 05:49:04;;;;;;;43.73;29.00;;;;;;;12.27;80.81;100560.63;5074912;28;20447;-84
2021/10/26 05:51:30;;;;;;;41.63;27.80;;;;;;;12.20;80.90;100571.94;5065626;28;20476;-84
2021/10/26 05:53:57;;;;;;;39.77;27.37;;;;;;;12.23;80.51;100570.81;5069476;28;20468;-84
2021/10/26 05:56:25;;;;;;;45.60;29.30;;;;;;;12.19;80.81;100580.97;5072592;28;20553;-84
2021/10/26 05:58:53;;;;;;;36.80;27.20;;;;;;;12.24;80.69;100569.81;5072700;28;20435;-85
2021/10/26 06:01:21;;;;;;;44.13;28.77;;;;;;;12.24;80.59;100578.72;5069377;28;20504;-84
2021/10/26 06:03:47;;;;;;;51.47;29.13;;;;;;;12.24;80.59;100586.75;5064959;28;20453;-83
2021/10/26 06:06:14;;;;;;;41.27;28.20;;;;;;;12.31;80.06;100584.34;5062048;28;20513;-84
2021/10/26 06:08:41;;;;;;;44.83;30.10;;;;;;;12.18;80.72;100591.81;5050769;28;20480;-83
2021/10/26 06:11:10;;;;;;;37.17;26.77;;;;;;;12.38;79.95;100587.31;5042746;28;20527;-78
2021/10/26 06:13:41;;;;;;;33.70;27.37;;;;;;;12.33;79.45;100600.28;5063969;28;20476;-77
2021/10/26 06:16:08;;;;;;;38.77;27.47;;;;;;;12.24;79.90;100604.69;5077048;28;20559;-77
2021/10/26 06:18:35;;;;;;;40.87;28.97;;;;;;;12.34;79.41;100600.16;5063518;28;20436;-77
2021/10/26 06:21:02;;;;;;;37.77;27.07;;;;;;;12.49;79.24;100605.06;5061382;28;20503;-79
2021/10/26 06:23:29;;;;;;;38.97;27.70;;;;;;;12.27;79.37;100603.53;5063234;28;20452;-80
2021/10/26 06:25:56;;;;;;;38.93;26.80;;;;;;;12.46;79.25;100606.19;5062619;28;20491;-80
2021/10/26 06:28:23;;;;;;;37.10;27.60;;;;;;;12.42;79.36;100620.88;5061875;28;20977;-80
2021/10/26 06:30:51;;;;;;;37.83;28.47;;;;;;;12.34;79.15;100624.28;5045238;28;20469;-80
2021/10/26 06:33:18;;;;;;;41.07;28.60;;;;;;;12.23;79.31;100622.56;5043203;28;20525;-79
2021/10/26 06:35:45;;;;;;;39.17;27.70;;;;;;;12.35;78.98;100625.13;5041984;28;20543;-79
2021/10/26 06:38:12;;;;;;;36.10;26.50;;;;;;;12.38;78.60;100623.00;5059801;28;21030;-79
2021/10/26 06:40:38;;;;;;;38.70;27.80;;;;;;;12.53;78.05;100639.47;5081055;28;20850;-79
2021/10/26 06:43:05;;;;;;;36.03;26.93;;;;;;;12.43;77.95;100633.31;5082109;28;20543;-79
2021/10/26 06:45:32;;;;;;;37.60;26.73;;;;;;;12.50;77.47;100641.59;5082852;28;20468;-79
2021/10/26 06:48:00;;;;;;;35.70;27.43;;;;;;;12.31;78.03;100647.81;5083228;28;20463;-80
2021/10/26 06:50:27;;;;;;;36.67;25.53;;;;;;;12.32;77.63;100645.00;5081560;28;20527;-79
2021/10/26 06:52:53;;;;;;;37.93;27.60;;;;;;;12.44;77.56;100653.75;5065630;28;20556;-79
2021/10/26 06:55:20;;;;;;;33.53;25.07;;;;;;;12.49;77.35;100653.31;5071206;28;20432;-79
2021/10/26 06:57:48;;;;;;;33.93;26.50;;;;;;;12.42;77.43;100659.25;5061866;28;20456;-81
2021/10/26 07:00:18;;;;;;;48.83;28.10;;;;;;;12.30;77.90;100665.75;5061860;28;20471;-79
2021/10/26 07:02:46;;;;;;;36.23;28.17;;;;;;;12.28;78.16;100667.72;5062079;28;20709;-79
2021/10/26 07:05:16;;;;;;;36.20;26.20;;;;;;;12.23;78.25;100672.66;5060817;28;20485;-79
2021/10/26 07:07:42;;;;;;;36.20;25.10;;;;;;;12.30;77.89;100671.09;5065316;28;20436;-80
2021/10/26 07:10:09;;;;;;;38.77;25.40;;;;;;;12.42;77.56;100672.66;5081113;28;20532;-81
2021/10/26 07:12:36;;;;;;;30.30;25.00;;;;;;;12.18;77.92;100673.09;5080372;28;20479;-79
2021/10/26 07:15:06;;;;;;;32.60;23.60;;;;;;;12.34;77.78;100669.84;5081982;28;20472;-81
2021/10/26 07:17:33;;;;;;;36.87;25.13;;;;;;;12.50;77.10;100682.69;5081171;28;20465;-80
2021/10/26 07:20:01;;;;;;;31.83;23.60;;;;;;;12.52;77.05;100674.50;5081010;28;20460;-80
2021/10/26 07:22:29;;;;;;;27.03;21.53;;;;;;;12.44;76.84;100681.41;5080384;28;20476;-80
2021/10/26 07:25:01;;;;;;;29.97;21.93;;;;;;;12.75;76.14;100680.38;5082316;28;20503;-80
2021/10/26 07:27:28;;;;;;;26.93;21.23;;;;;;;12.59;76.47;100676.47;5080812;28;20491;-80
2021/10/26 07:29:55;;;;;;;29.43;20.70;;;;;;;12.85;75.48;100685.75;5082482;28;20668;-79
2021/10/26 07:32:21;;;;;;;30.30;20.00;;;;;;;12.92;75.57;100681.50;5080962;28;20522;-79
2021/10/26 07:34:48;;;;;;;28.17;20.67;;;;;;;12.91;75.33;100677.09;5081005;28;20448;-80
2021/10/26 07:37:16;;;;;;;27.50;21.20;;;;;;;12.79;75.61;100687.16;5080902;28;20477;-80
2021/10/26 07:39:46;;;;;;;24.67;19.63;;;;;;;12.79;76.29;100693.38;5082147;28;20432;-79
2021/10/26 07:42:14;;;;;;;33.57;20.60;;;;;;;12.84;75.93;100687.56;5080376;28;20543;-80
2021/10/26 07:44:41;;;;;;;37.83;21.60;;;;;;;12.69;76.64;100692.56;5081822;28;20500;-79
2021/10/26 07:47:08;;;;;;;31.90;21.70;;;;;;;12.57;77.12;100699.06;5081461;28;20471;-80
2021/10/26 07:49:34;;;;;;;29.83;20.17;;;;;;;12.72;77.00;100688.72;5081113;28;20447;-78
2021/10/26 07:52:02;;;;;;;34.43;22.80;;;;;;;12.71;77.06;100695.09;5080647;28;20967;-80
2021/10/26 07:54:29;;;;;;;38.37;23.83;;;;;;;12.85;76.66;100694.63;5082109;28;20429;-80
2021/10/26 07:56:57;;;;;;;40.23;24.70;;;;;;;12.88;76.44;100694.34;5080716;28;20506;-80
2021/10/26 07:59:24;;;;;;;33.27;25.80;;;;;;;12.94;75.89;100690.22;5081780;28;20771;-79
2021/10/26 08:01:51;;;;;;;32.70;25.10;;;;;;;12.95;76.31;100689.22;5080890;28;20551;-79
2021/10/26 08:04:17;;;;;;;38.47;26.60;;;;;;;12.93;76.45;100697.44;5080699;28;20428;-79
2021/10/26 08:06:45;;;;;;;45.10;31.07;;;;;;;12.87;76.29;100689.97;5066462;28;20492;-80
2021/10/26 08:09:12;;;;;;;41.27;30.80;;;;;;;12.85;76.59;100691.13;5061692;28;20437;-80
2021/10/26 08:11:38;;;;;;;39.47;28.33;;;;;;;13.11;75.99;100683.28;5059989;28;20527;-80
2021/10/26 08:14:07;;;;;;;35.60;27.77;;;;;;;13.27;75.11;100696.91;5075225;28;20484;-81
2021/10/26 08:16:33;;;;;;;42.00;28.80;;;;;;;13.15;75.41;100698.09;5081379;28;20887;-80
2021/10/26 08:19:01;;;;;;;37.60;27.60;;;;;;;13.14;75.52;100704.44;5080450;28;20438;-80
2021/10/26 08:21:27;;;;;;;36.60;28.90;;;;;;;13.15;75.51;100711.50;5079904;28;20539;-79
2021/10/26 08:23:55;;;;;;;33.93;27.80;;;;;;;13.24;75.22;100712.47;5081358;28;20458;-80
2021/10/26 08:26:26;;;;;;;39.00;28.47;;;;;;;12.92;76.36;100721.75;5080447;28;20476;-77
2021/10/26 08:28:58;;;;;;;40.83;28.40;;;;;;;13.06;76.32;100720.44;5081413;28;20436;-80
2021/10/26 08:31:28;;;;;;;34.63;27.50;;;;;;;13.07;76.16;100722.13;5081105;28;20471;-79
2021/10/26 08:34:12;;;;;;;38.80;28.60;;;;;;;13.20;76.10;100725.34;5080865;28;20517;-80
2021/10/26 08:36:39;;;;;;;38.70;28.20;;;;;;;13.05;75.77;100724.09;5082780;28;20472;-80
2021/10/26 08:39:06;;;;;;;38.57;28.43;;;;;;;13.19;75.63;100727.19;5067979;28;20504;-79
2021/10/26 08:41:34;;;;;;;40.27;28.37;;;;;;;13.48;74.72;100725.41;5063776;28;20483;-79
2021/10/26 08:44:00;;;;;;;41.60;28.03;;;;;;;13.46;74.52;100730.94;5065157;28;20453;-80
2021/10/26 08:46:29;;;;;;;33.37;26.93;;;;;;;13.06;75.42;100728.50;5064183;28;20548;-80
2021/10/26 08:48:55;;;;;;;38.63;25.10;;;;;;;13.18;75.41;100728.16;5062008;28;20429;-81
2021/10/26 08:51:24;;;;;;;36.83;26.27;;;;;;;13.40;74.83;100731.50;5063697;28;20551;-80
2021/10/26 08:53:53;;;;;;;32.53;25.30;;;;;;;13.14;75.25;100733.97;5057072;28;20465;-79
2021/10/26 08:56:21;;;;;;;32.10;25.67;;;;;;;13.45;74.29;100720.34;5043824;28;20495;-80
2021/10/26 08:58:48;;;;;;;36.60;26.00;;;;;;;13.85;73.43;100721.81;5044115;28;20444;-80
2021/10/26 09:01:15;;;;;;;31.73;24.20;;;;;;;14.37;71.47;100719.34;5043659;28;20474;-79
2021/10/26 09:03:44;;;;;;;29.70;23.47;;;;;;;14.92;69.69;100731.78;5069811;28;20444;-80
2021/10/26 09:06:12;;;;;;;30.50;24.60;;;;;;;15.94;66.05;100718.53;5083051;28;20484;-80
2021/10/26 09:08:43;;;;;;;25.97;21.10;;;;;;;15.96;64.69;100711.13;5084823;28;20467;-80
2021/10/26 09:11:23;;;;;;;30.07;20.20;;;;;;;17.49;59.20;100714.09;5085907;28;20494;-80
2021/10/26 09:16:47;;;;;;;23.17;17.80;;;;;;;16.47;62.93;100717.25;5083827;28;20555;-79
2021/10/26 09:19:16;;;;;;;21.33;16.83;;;;;;;16.43;62.39;100720.47;5084182;28;20496;-81
2021/10/26 09:21:44;;;;;;;23.83;19.23;;;;;;;15.85;63.94;100711.41;5082746;28;20503;-81
2021/10/26 09:24:12;;;;;;;20.73;16.57;;;;;;;16.67;61.40;100717.78;5083420;28;20965;-81
2021/10/26 09:26:52;;;;;;;19.67;16.37;;;;;;;18.09;56.91;100720.78;5084049;28;20503;-81
2021/10/26 09:29:22;;;;;;;24.67;15.20;;;;;;;17.80;56.07;100716.00;5079759;28;20476;-80
2021/10/26 09:31:48;;;;;;;17.80;14.60;;;;;;;18.10;56.82;100724.34;5062759;28;20480;-80
2021/10/26 09:34:18;;;;;;;16.27;14.57;;;;;;;18.24;55.82;100716.31;5064144;28;20461;-80
2021/10/26 09:36:47;;;;;;;18.43;13.50;;;;;;;19.44;52.22;100719.28;5078788;28;20499;-80
2021/10/26 09:39:19;;;;;;;15.33;11.70;;;;;;;18.50;53.30;100711.53;5083890;28;20464;-79
2021/10/26 09:42:10;;;;;;;14.67;11.20;;;;;;;18.78;52.57;100712.66;5083174;28;20464;-80
2021/10/26 09:44:39;;;;;;;16.83;11.10;;;;;;;19.09;52.12;100724.41;5084331;28;20459;-79
2021/10/26 09:47:09;;;;;;;15.53;12.83;;;;;;;17.91;54.63;100707.53;5082593;28;20487;-80
2021/10/26 09:49:38;;;;;;;17.03;14.10;;;;;;;17.58;57.08;100715.75;5083513;28;20478;-81
2021/10/26 09:52:16;;;;;;;16.77;13.30;;;;;;;17.97;55.25;100714.09;5082880;28;20476;-80
2021/10/26 09:54:44;;;;;;;17.53;13.90;;;;;;;18.00;55.03;100711.03;5083637;28;20440;-81
2021/10/26 09:57:12;;;;;;;16.50;13.20;;;;;;;17.41;56.28;100716.84;5083327;28;20534;-81
2021/10/26 09:59:46;;;;;;;19.03;14.27;;;;;;;16.84;58.39;100729.44;5083688;28;20448;-78
2021/10/26 10:02:17;;;;;;;22.57;14.70;;;;;;;17.58;55.65;100714.91;5081908;28;20483;-77
2021/10/26 10:04:45;;;;;;;19.13;14.73;;;;;;;17.67;55.76;100712.03;5083384;28;20597;-80
2021/10/26 10:07:12;;;;;;;15.83;13.03;;;;;;;18.62;53.23;100727.16;5083046;28;20496;-81
2021/10/26 10:09:38;;;;;;;22.57;14.43;;;;;;;18.83;53.19;100731.09;5082942;28;20487;-79
2021/10/26 10:12:07;;;;;;;17.70;14.97;;;;;;;17.67;55.09;100725.53;5081314;28;20488;-80
2021/10/26 10:14:34;;;;;;;18.87;15.10;;;;;;;18.23;54.00;100724.59;5080411;28;20495;-80
2021/10/26 10:17:03;;;;;;;20.13;14.30;;;;;;;18.34;54.02;100718.75;5041830;28;20545;-80
2021/10/26 10:19:30;;;;;;;20.33;15.20;;;;;;;18.76;53.10;100730.13;5042340;28;20524;-80
2021/10/26 10:21:58;;;;;;;16.80;15.13;;;;;;;19.31;51.22;100730.81;5041957;28;20585;-80
2021/10/26 10:24:28;;;;;;;18.20;16.30;;;;;;;17.86;54.74;100728.84;5042225;28;20489;-80
2021/10/26 10:26:54;;;;;;;20.40;16.33;;;;;;;17.06;57.23;100735.16;5057031;28;20561;-80
2021/10/26 10:29:21;;;;;;;20.60;16.63;;;;;;;16.82;58.34;100736.84;5083001;28;20494;-88
2021/10/26 10:31:50;;;;;;;20.30;15.80;;;;;;;16.38;59.46;100734.47;5081545;28;20486;-79
2021/10/26 10:34:22;;;;;;;20.53;17.30;;;;;;;17.00;58.10;100720.47;5082526;28;20455;-79
2021/10/26 10:36:52;;;;;;;21.10;16.97;;;;;;;18.17;54.51;100723.44;5081186;28;20478;-79
2021/10/26 10:39:27;;;;;;;16.83;15.07;;;;;;;17.84;54.49;100725.44;5081688;28;20436;-80
2021/10/26 10:42:19;;;;;;;18.00;15.00;;;;;;;17.42;55.05;100727.47;5080942;28;20808;-80
2021/10/26 10:44:46;;;;;;;18.67;15.43;;;;;;;16.63;58.27;100720.97;5082515;28;20499;-79
2021/10/26 10:47:32;;;;;;;19.57;17.50;;;;;;;15.91;60.94;100722.38;5081182;28;20587;-80
2021/10/26 10:49:59;;;;;;;18.00;15.60;;;;;;;16.77;58.20;100731.13;5081825;28;20575;-82
2021/10/26 10:52:32;;;;;;;17.30;14.80;;;;;;;16.74;56.91;100717.94;5080603;28;20626;-82
2021/10/26 10:55:01;;;;;;;20.50;14.87;;;;;;;17.42;56.15;100721.22;5082233;28;20432;-79
2021/10/26 10:57:33;;;;;;;19.90;14.77;;;;;;;16.89;57.62;100727.09;5068395;28;20472;-79
2021/10/26 11:00:03;;;;;;;19.33;15.50;;;;;;;16.19;58.97;100731.03;5061372;28;20748;-79
2021/10/26 11:02:35;;;;;;;17.23;15.43;;;;;;;15.35;61.40;100721.97;5061173;28;20461;-80
2021/10/26 11:05:04;;;;;;;21.30;15.70;;;;;;;15.42;61.95;100723.00;5061828;28;20456;-79
2021/10/26 11:07:52;;;;;;;23.13;15.67;;;;;;;15.21;62.61;100722.56;5061192;28;20465;-79
2021/10/26 11:10:21;;;;;;;19.30;15.70;;;;;;;14.92;64.04;100717.47;5061603;28;20623;-79
2021/10/26 11:12:49;;;;;;;18.23;16.27;;;;;;;15.03;63.88;100717.22;5065517;28;20460;-78
2021/10/26 11:15:22;;;;;;;17.90;15.30;;;;;;;15.79;62.09;100724.53;5081233;28;20440;-80